1990 ALEX (1990074S12115)


On this page: IBTrACS data - Map and Plots - Positions - Intensities - Original source data

Summary

Start Mar 14
End Mar 26
Basin SI
LMI 130 kt
Sources jtwc_sh
bom
neumann
In WMO? Yes
Previous storm 1990 IVOR (SP)
Previous in basin 1990 FELANA (SI)
Concurrent storms 1990 GREGOARA (SI)
1990 FELANA (SI)
1990 IVOR (SP)
1990 ALEX (SI)
1990 RAE7 (SP)
1990 RAE (SP)
1990 RAE (SP)
Next in basin 1990 HANTA (SI)
Next storm 1990 RAE7 (SP)

top of page IBTrACS Data: File Access

top of page HURSAT Data: File Access

Image of storm

top of page Plots:

Map of storm track will not appear if FTP is down
Time series of cyclone Maximum Sustained Wind will not appear if FTP is down
Time series of cyclone Minimum Central Pressure will not appear if FTP is down

top of page Track Data:Position

jtwc_sh bom neumann
Date Lat Lon Lat Lon Lat Lon
1990-03-14 12:00:00 -11.8 115.2 -11.8 115.2
1990-03-14 18:00:00 -11.9 114.0 -11.9 114.0
1990-03-15 00:00:00 -12.3 113.3 -12.3 113.3
1990-03-15 06:00:00 -12.4 112.9 -12.4 112.9
1990-03-15 12:00:00 -12.4 112.6 -12.4 112.6
1990-03-15 18:00:00 -12.4 112.3 -12.4 112.3
1990-03-16 00:00:00 -12.6 112.0 -12.3 112.4 -12.6 112.0
1990-03-16 06:00:00 -12.8 111.5 -12.4 111.8 -12.8 111.5
1990-03-16 12:00:00 -12.9 110.9 -12.4 111.2 -12.9 110.9
1990-03-16 18:00:00 -12.8 110.4 -12.6 110.6 -12.8 110.4
1990-03-17 00:00:00 -12.8 110.0 -12.8 110.0 -12.8 110.0
1990-03-17 06:00:00 -12.9 109.6 -13.0 109.6 -12.9 109.6
1990-03-17 12:00:00 -13.1 109.1 -13.4 109.0 -13.1 109.1
1990-03-17 18:00:00 -13.3 108.6 -13.5 108.6 -13.3 108.6
1990-03-18 00:00:00 -13.6 108.1 -13.6 108.2 -13.6 108.1
1990-03-18 06:00:00 -14.1 107.5 -14.2 107.5 -14.1 107.5
1990-03-18 12:00:00 -14.6 106.7 -14.9 106.4 -14.6 106.7
1990-03-18 18:00:00 -15.0 105.8 -15.0 105.8 -15.0 105.8
1990-03-19 00:00:00 -15.3 104.9 -15.0 105.0 -15.3 104.9
1990-03-19 06:00:00 -15.6 104.8 -15.6 103.9 -15.6 104.8
1990-03-19 12:00:00 -16.0 102.0 -16.2 102.7 -16.0 102.0
1990-03-19 18:00:00 -16.5 101.7 -16.5 101.5 -16.5 101.7
1990-03-20 00:00:00 -17.0 100.3 -16.7 100.6 -17.0 100.3
1990-03-20 06:00:00 -17.6 99.0 -17.4 99.2 -17.6 99.0
1990-03-20 12:00:00 -18.1 97.7 -18.4 97.6 -18.1 97.7
jtwc_sh bom neumann
1990-03-20 18:00:00 -18.9 96.3 -19.0 96.6 -18.9 96.3
1990-03-21 00:00:00 -19.7 95.2 -19.6 95.6 -19.7 95.2
1990-03-21 06:00:00 -20.6 94.2 -20.4 94.3 -20.6 94.2
1990-03-21 12:00:00 -21.3 93.2 -21.2 93.0 -21.3 93.2
1990-03-21 18:00:00 -21.9 92.3 -21.6 92.6 -21.9 92.3
1990-03-22 00:00:00 -22.6 91.7 -22.0 92.1 -22.6 91.7
1990-03-22 06:00:00 -23.3 91.2 -22.6 91.5 -23.3 91.2
1990-03-22 12:00:00 -24.1 91.0 -24.0 91.0 -24.1 91.0
1990-03-22 18:00:00 -24.9 90.9 -25.0 91.2 -24.9 90.9
1990-03-23 00:00:00 -25.7 91.0 -25.8 91.6 -25.7 91.0
1990-03-23 06:00:00 -26.6 91.8 -26.5 92.3 -26.6 91.8
1990-03-23 12:00:00 -27.2 92.9 -27.4 92.9 -27.2 92.9
1990-03-23 18:00:00 -27.4 94.0 -27.1 94.3 -27.4 94.0
1990-03-24 00:00:00 -27.6 95.5 -26.6 96.1 -27.6 95.5
1990-03-24 06:00:00 -26.3 97.6
1990-03-24 12:00:00 -25.5 98.5
1990-03-24 18:00:00 -24.9 99.2
1990-03-25 00:00:00 -22.0 99.5
1990-03-25 06:00:00 -20.2 99.0
1990-03-25 12:00:00 -19.4 98.0
1990-03-25 18:00:00 -18.8 96.6
1990-03-26 00:00:00 -18.2 94.9

top of pageTrack Data:Intensity

jtwc_sh bom neumann
Date Wind Pres Wind Pres Wind Pres
1990-03-14 12:00:00 20. 20.
1990-03-14 18:00:00 20. 20.
1990-03-15 00:00:00 20. 20.
1990-03-15 06:00:00 25. 25.
1990-03-15 12:00:00 25. 25.
1990-03-15 18:00:00 30. 30.
1990-03-16 00:00:00 30. 35. 998. 30.
1990-03-16 06:00:00 35. 45. 991. 35.
1990-03-16 12:00:00 40. 49. 988. 40.
1990-03-16 18:00:00 45. 52. 986. 45.
1990-03-17 00:00:00 55. 56. 984. 55.
1990-03-17 06:00:00 65. 60. 980. 65.
1990-03-17 12:00:00 75. 70. 972. 75.
1990-03-17 18:00:00 80. 82. 962. 80.
1990-03-18 00:00:00 80. 93. 952. 80.
1990-03-18 06:00:00 90. 97. 947. 90.
1990-03-18 12:00:00 100. 103. 941. 100.
1990-03-18 18:00:00 105. 105. 938. 105.
1990-03-19 00:00:00 110. 109. 934. 110.
1990-03-19 06:00:00 115. 113. 930. 115.
1990-03-19 12:00:00 120. 115. 927. 120.
1990-03-19 18:00:00 125. 115. 927. 125.
1990-03-20 00:00:00 130. 115. 927. 130.
1990-03-20 06:00:00 130. 103. 941. 130.
1990-03-20 12:00:00 125. 99. 945. 125.
jtwc_sh bom neumann
1990-03-20 18:00:00 125. 95. 950. 125.
1990-03-21 00:00:00 120. 89. 954. 120.
1990-03-21 06:00:00 115. 84. 960. 115.
1990-03-21 12:00:00 110. 78. 966. 110.
1990-03-21 18:00:00 105. 70. 972. 105.
1990-03-22 00:00:00 95. 66. 976. 95.
1990-03-22 06:00:00 85. 60. 980. 85.
1990-03-22 12:00:00 70. 56. 984. 70.
1990-03-22 18:00:00 60. 51. 987. 60.
1990-03-23 00:00:00 50. 45. 991. 50.
1990-03-23 06:00:00 45. 41. 994. 45.
1990-03-23 12:00:00 40. 35. 997. 40.
1990-03-23 18:00:00 35. 33. 999. 35.
1990-03-24 00:00:00 30. 31. 1000. 30.
1990-03-24 06:00:00 29. 1001.
1990-03-24 12:00:00 27. 1003.
1990-03-24 18:00:00 25. 1004.
1990-03-25 00:00:00 25. 1004.
1990-03-25 06:00:00 23. 1005.
1990-03-25 12:00:00 1006.
1990-03-25 18:00:00 1007.
1990-03-26 00:00:00 1008.

top of page Links to source data

Source Source file Format
jtwc_sh bsh241990.txt ATCF
bom IDCKMSTM0S.csv:Line=17958:ALEX CSV file (from Excel file)
neumann tracks.sh:Storm=893:ALEX:BSH241990:JTWC&BM788 HURDAT